Linton-on-ouse, United Kingdom
Current Conditions -  °F | °C
As of 8:50 AM on Sunday 21 Dec 2014 (Local Time) from EGXU Reporting Station
Scattered Clouds Scattered Clouds  
Wind Chill: 38°   Ceiling: Unl
Heat Index: 45°   Visibility: 6mi
Dew Point: 45°   Wind: 13mph
Humidity: 100%   Direction: 230°SW
Pressure: 30.12"   Gusts: NA
Location:  54.05°N, 1.25°W
Report Text: EGXU 210850Z AUTO 23011KT 9999 // SCT041/// SCT048/// 07/07 Q1020
Loading
Personal Weather Stations






























Interactive Weather Map New forecast layout! Learn more

10-Day Weather Forecast

Advertisements
Track Severe Weather on mobile